createdAt,value
2018-09-26T00:00:09.769Z,7.20
2018-09-26T00:02:50.622Z,7.20
2018-09-26T00:05:19.618Z,7.20
2018-09-26T00:07:48.121Z,7.30
2018-09-26T00:10:16.701Z,7.30
2018-09-26T00:12:45.208Z,7.30
2018-09-26T00:15:13.796Z,7.30
2018-09-26T00:17:42.321Z,7.30
2018-09-26T00:20:11.172Z,7.30
2018-09-26T00:22:39.710Z,7.30
2018-09-26T00:25:08.299Z,7.30
2018-09-26T00:27:36.876Z,7.30
2018-09-26T00:30:05.492Z,7.30
2018-09-26T00:32:33.992Z,7.30
2018-09-26T00:35:02.499Z,7.30
2018-09-26T00:37:31.007Z,7.30
2018-09-26T00:39:59.502Z,7.40
2018-09-26T00:42:28.026Z,7.40
2018-09-26T00:44:56.638Z,7.40
2018-09-26T00:47:25.188Z,7.40
2018-09-26T00:49:53.684Z,7.40
2018-09-26T00:52:22.219Z,7.50
2018-09-26T00:54:51.313Z,7.50
2018-09-26T00:57:19.820Z,7.50
2018-09-26T00:59:48.357Z,7.50
2018-09-26T01:02:16.883Z,7.50
2018-09-26T01:04:45.403Z,7.50
2018-09-26T01:07:13.889Z,7.60
2018-09-26T01:09:42.394Z,7.60
2018-09-26T01:12:11.518Z,7.70
2018-09-26T01:14:40.011Z,7.80
2018-09-26T01:17:08.947Z,7.80
2018-09-26T01:19:37.448Z,7.80
2018-09-26T01:22:05.957Z,7.80
2018-09-26T01:24:34.591Z,7.80
2018-09-26T01:27:03.185Z,7.80
2018-09-26T01:29:31.723Z,7.80
2018-09-26T01:32:00.224Z,7.80
2018-09-26T01:34:28.772Z,7.90
2018-09-26T01:36:57.351Z,7.80
2018-09-26T01:39:25.861Z,7.80
2018-09-26T01:41:54.361Z,7.80
2018-09-26T01:44:22.972Z,7.80
2018-09-26T01:46:51.563Z,7.80
2018-09-26T01:49:20.149Z,7.80
2018-09-26T01:51:48.697Z,7.90
2018-09-26T01:54:17.214Z,7.90
2018-09-26T01:56:45.742Z,7.80
2018-09-26T01:59:14.250Z,7.80
2018-09-26T02:01:42.793Z,7.80
2018-09-26T02:04:11.268Z,7.80
2018-09-26T02:06:40.321Z,7.80
2018-09-26T02:09:10.715Z,7.70
2018-09-26T02:11:39.413Z,7.70
2018-09-26T02:14:08.040Z,7.70
2018-09-26T02:16:37.343Z,7.70
2018-09-26T02:19:06.071Z,7.70
2018-09-26T02:21:34.574Z,7.60
2018-09-26T02:24:03.062Z,7.60
2018-09-26T02:26:31.610Z,7.60
2018-09-26T02:29:00.163Z,7.50
2018-09-26T02:31:28.687Z,7.50
2018-09-26T02:33:57.169Z,7.50
2018-09-26T02:36:25.768Z,7.40
2018-09-26T02:38:54.285Z,7.40
2018-09-26T02:41:22.841Z,7.40
2018-09-26T02:43:51.393Z,7.30
2018-09-26T02:46:19.913Z,7.30
2018-09-26T02:48:53.922Z,7.40
2018-09-26T02:51:22.472Z,7.30
2018-09-26T02:53:50.988Z,7.40
2018-09-26T02:56:19.512Z,7.40
2018-09-26T02:58:48.101Z,7.50
2018-09-26T03:01:16.622Z,7.60
2018-09-26T03:03:45.130Z,7.60
2018-09-26T03:06:13.674Z,7.70
2018-09-26T03:08:42.173Z,7.80
2018-09-26T03:11:10.690Z,7.90
2018-09-26T03:13:39.220Z,8.00
2018-09-26T03:16:07.693Z,8.00
2018-09-26T03:18:36.190Z,8.00
2018-09-26T03:21:04.697Z,8.00
2018-09-26T03:23:33.223Z,8.00
2018-09-26T03:26:01.740Z,8.00
2018-09-26T03:28:30.230Z,8.00
2018-09-26T03:30:58.787Z,8.00
2018-09-26T03:33:27.298Z,8.00
2018-09-26T03:35:55.836Z,8.00
2018-09-26T03:38:24.387Z,8.00
2018-09-26T03:40:52.891Z,7.90
2018-09-26T03:43:21.505Z,7.90
2018-09-26T03:45:50.280Z,7.90
2018-09-26T03:48:18.942Z,7.90
2018-09-26T03:50:47.504Z,7.80
2018-09-26T03:53:16.097Z,7.80
2018-09-26T03:55:44.604Z,7.80
2018-09-26T03:58:13.138Z,7.70
2018-09-26T04:00:41.623Z,7.70
2018-09-26T04:03:10.150Z,7.70
2018-09-26T04:05:38.701Z,7.70
2018-09-26T04:08:07.514Z,7.60
2018-09-26T04:10:36.056Z,7.60
2018-09-26T04:13:05.159Z,7.60
2018-09-26T04:15:37.841Z,7.50
2018-09-26T04:18:07.182Z,7.50
2018-09-26T04:20:35.703Z,7.40
2018-09-26T04:23:04.287Z,7.40
2018-09-26T04:25:32.800Z,7.30
2018-09-26T04:28:01.409Z,7.30
2018-09-26T04:30:30.095Z,7.30
2018-09-26T04:32:58.720Z,7.30
2018-09-26T04:35:27.034Z,7.30
2018-09-26T04:37:55.536Z,7.30
2018-09-26T04:40:24.873Z,7.40
2018-09-26T04:42:53.363Z,7.40
2018-09-26T04:45:21.933Z,7.40
2018-09-26T04:47:50.459Z,7.40
2018-09-26T04:50:18.975Z,7.50
2018-09-26T04:52:47.497Z,7.40
2018-09-26T04:55:16.110Z,7.50
2018-09-26T04:57:45.060Z,7.50
2018-09-26T05:00:13.560Z,7.50
2018-09-26T05:02:42.259Z,7.50
2018-09-26T05:05:10.755Z,7.50
2018-09-26T05:07:39.244Z,7.50
2018-09-26T05:10:08.137Z,7.60
2018-09-26T05:12:36.885Z,7.60
2018-09-26T05:15:05.599Z,7.70
2018-09-26T05:17:34.854Z,7.70
2018-09-26T05:20:03.376Z,7.70
2018-09-26T05:22:32.648Z,7.80
2018-09-26T05:25:01.161Z,7.90
2018-09-26T05:27:29.716Z,7.90
2018-09-26T05:29:58.285Z,8.00
2018-09-26T05:32:26.801Z,8.10
2018-09-26T05:34:55.361Z,8.10
2018-09-26T05:37:23.878Z,8.20
2018-09-26T05:39:52.385Z,8.20
2018-09-26T05:42:20.914Z,8.20
2018-09-26T05:44:49.488Z,8.30
2018-09-26T05:47:18.071Z,8.30
2018-09-26T05:49:47.807Z,8.40
2018-09-26T05:52:16.300Z,8.40
2018-09-26T05:54:44.840Z,8.50
2018-09-26T05:57:13.650Z,8.50
2018-09-26T05:59:42.234Z,8.50
2018-09-26T06:02:10.743Z,8.60
2018-09-26T06:04:39.248Z,8.60
2018-09-26T06:07:07.770Z,8.70
2018-09-26T06:09:36.340Z,8.80
2018-09-26T06:12:04.856Z,8.80
2018-09-26T06:14:33.395Z,8.90
2018-09-26T06:17:01.929Z,9.00
2018-09-26T06:19:37.143Z,9.10
2018-09-26T06:22:05.707Z,9.20
2018-09-26T06:24:34.244Z,9.20
2018-09-26T06:27:02.728Z,9.30
2018-09-26T06:29:31.243Z,9.40
2018-09-26T06:31:59.716Z,9.40
2018-09-26T06:34:28.249Z,9.50
2018-09-26T06:36:56.759Z,9.50
2018-09-26T06:39:25.257Z,9.60
2018-09-26T06:41:53.789Z,9.70
2018-09-26T06:44:22.308Z,9.70
2018-09-26T06:46:50.808Z,9.70
2018-09-26T06:49:19.348Z,9.80
2018-09-26T06:51:47.878Z,9.90
2018-09-26T06:54:16.372Z,9.90
2018-09-26T06:56:44.951Z,10.00
2018-09-26T06:59:13.444Z,10.10
2018-09-26T07:01:42.022Z,10.10
2018-09-26T07:04:10.564Z,10.30
2018-09-26T07:06:39.135Z,10.30
2018-09-26T07:09:08.676Z,10.40
2018-09-26T07:11:37.230Z,10.50
2018-09-26T07:14:05.732Z,10.60
2018-09-26T07:16:34.299Z,10.70
2018-09-26T07:19:02.834Z,10.80
2018-09-26T07:21:31.378Z,10.90
2018-09-26T07:23:59.939Z,11.00
2018-09-26T07:26:28.457Z,11.00
2018-09-26T07:28:56.960Z,11.10
2018-09-26T07:31:25.570Z,11.20
2018-09-26T07:33:54.161Z,11.20
2018-09-26T07:36:22.651Z,11.30
2018-09-26T07:38:51.158Z,11.40
2018-09-26T07:41:19.717Z,11.50
2018-09-26T07:43:48.258Z,11.50
2018-09-26T07:46:16.780Z,11.60
2018-09-26T07:48:45.320Z,11.60
2018-09-26T07:51:13.815Z,11.70
2018-09-26T07:53:42.366Z,11.70
2018-09-26T07:56:10.937Z,11.70
2018-09-26T07:58:39.448Z,11.80
2018-09-26T08:01:08.128Z,11.90
2018-09-26T08:03:36.649Z,12.10
2018-09-26T08:06:05.222Z,12.20
2018-09-26T08:08:33.737Z,12.30
2018-09-26T08:11:02.228Z,12.30
2018-09-26T08:13:30.790Z,12.30
2018-09-26T08:15:59.291Z,12.40
2018-09-26T08:18:27.824Z,12.50
2018-09-26T08:20:56.347Z,12.60
2018-09-26T08:23:25.654Z,12.70
2018-09-26T08:25:54.208Z,12.80
2018-09-26T08:28:22.727Z,13.00
2018-09-26T08:30:51.239Z,13.00
2018-09-26T08:33:19.758Z,13.00
2018-09-26T08:35:48.982Z,13.00
2018-09-26T08:38:17.512Z,13.00
2018-09-26T08:40:46.120Z,13.00
2018-09-26T08:43:14.662Z,13.00
2018-09-26T08:45:43.174Z,13.00
2018-09-26T08:48:11.732Z,13.10
2018-09-26T08:50:40.259Z,13.20
2018-09-26T08:53:09.124Z,13.40
2018-09-26T08:55:37.660Z,13.50
2018-09-26T08:58:06.225Z,13.60
2018-09-26T09:00:36.457Z,13.80
2018-09-26T09:03:06.783Z,14.00
2018-09-26T09:05:35.314Z,14.10
2018-09-26T09:08:03.861Z,14.20
2018-09-26T09:10:32.401Z,14.30
2018-09-26T09:13:00.933Z,14.40
2018-09-26T09:15:29.533Z,14.50
2018-09-26T09:18:06.441Z,14.60
2018-09-26T09:20:34.967Z,14.60
2018-09-26T09:23:03.636Z,14.70
2018-09-26T09:25:32.155Z,14.80
2018-09-26T09:28:00.974Z,14.90
2018-09-26T09:30:29.530Z,15.00
2018-09-26T09:32:58.120Z,15.00
2018-09-26T09:35:26.661Z,15.10
2018-09-26T09:37:55.343Z,15.20
2018-09-26T09:40:23.847Z,15.30
2018-09-26T09:42:52.367Z,15.40
2018-09-26T09:45:20.854Z,15.60
2018-09-26T09:47:49.393Z,15.70
2018-09-26T09:50:17.956Z,15.60
2018-09-26T09:52:46.445Z,15.60
2018-09-26T09:55:14.959Z,15.60
2018-09-26T09:57:43.521Z,15.70
2018-09-26T10:00:12.836Z,15.80
2018-09-26T10:02:41.396Z,16.00
2018-09-26T10:05:09.973Z,16.10
2018-09-26T10:07:38.474Z,16.20
2018-09-26T10:10:06.955Z,16.20
2018-09-26T10:12:35.492Z,16.20
2018-09-26T10:15:04.180Z,16.20
2018-09-26T10:17:32.795Z,16.20
2018-09-26T10:20:01.244Z,16.30
2018-09-26T10:22:29.752Z,16.30
2018-09-26T10:24:58.292Z,16.30
2018-09-26T10:27:26.719Z,16.30
2018-09-26T10:29:55.201Z,16.40
2018-09-26T10:32:23.702Z,16.40
2018-09-26T10:34:52.181Z,16.40
2018-09-26T10:37:20.658Z,16.50
2018-09-26T10:39:49.171Z,16.50
2018-09-26T10:42:18.303Z,16.60
2018-09-26T10:44:46.830Z,16.60
2018-09-26T10:47:15.310Z,16.60
2018-09-26T10:49:43.837Z,16.70
2018-09-26T10:52:12.343Z,16.70
2018-09-26T10:54:40.811Z,16.80
2018-09-26T10:57:09.332Z,16.90
2018-09-26T10:59:37.864Z,16.80
2018-09-26T11:02:06.366Z,16.70
2018-09-26T11:04:34.934Z,16.60
2018-09-26T11:07:03.472Z,16.50
2018-09-26T11:09:31.944Z,16.50
2018-09-26T11:12:00.493Z,16.40
2018-09-26T11:14:29.016Z,16.40
2018-09-26T11:16:57.598Z,16.40
2018-09-26T11:19:26.103Z,16.30
2018-09-26T11:21:54.591Z,16.20
2018-09-26T11:24:23.483Z,16.20
2018-09-26T11:26:52.045Z,16.20
2018-09-26T11:29:20.515Z,16.20
2018-09-26T11:31:48.982Z,16.20
2018-09-26T11:34:17.549Z,16.30
2018-09-26T11:36:46.078Z,16.30
2018-09-26T11:39:14.592Z,16.40
2018-09-26T11:41:44.201Z,16.40
2018-09-26T11:44:13.617Z,16.50
2018-09-26T11:46:42.070Z,16.50
2018-09-26T11:49:10.591Z,16.50
2018-09-26T11:51:39.131Z,16.50
2018-09-26T11:54:07.607Z,16.50
2018-09-26T11:56:36.091Z,16.50
2018-09-26T11:59:04.546Z,16.50
2018-09-26T12:01:33.139Z,16.50
2018-09-26T12:04:01.659Z,16.60
2018-09-26T12:06:30.333Z,16.60
2018-09-26T12:08:59.278Z,16.60
2018-09-26T12:11:27.798Z,16.70
2018-09-26T12:13:56.360Z,16.70
2018-09-26T12:16:24.868Z,16.70
2018-09-26T12:18:53.367Z,16.80
2018-09-26T12:21:30.356Z,16.90
2018-09-26T12:23:50.379Z,16.90
2018-09-26T12:26:18.934Z,17.00
2018-09-26T12:28:47.397Z,17.10
2018-09-26T12:31:15.926Z,17.20
2018-09-26T12:33:44.457Z,17.30
2018-09-26T12:36:13.022Z,17.40
2018-09-26T12:38:41.475Z,17.40
2018-09-26T12:41:10.014Z,17.50
2018-09-26T12:43:38.508Z,17.70
2018-09-26T12:46:07.497Z,17.70
2018-09-26T12:48:36.822Z,17.80
2018-09-26T12:51:05.271Z,17.90
2018-09-26T12:53:33.773Z,18.10
2018-09-26T12:56:02.243Z,18.20
2018-09-26T12:58:30.750Z,18.30
2018-09-26T13:00:59.315Z,18.50
2018-09-26T13:03:27.863Z,18.60
2018-09-26T13:05:56.383Z,18.80
2018-09-26T13:08:24.965Z,19.00
2018-09-26T13:10:53.392Z,19.10
2018-09-26T13:13:21.908Z,19.20
2018-09-26T13:15:50.415Z,19.50
2018-09-26T13:18:18.960Z,19.70
2018-09-26T13:20:47.407Z,19.80
2018-09-26T13:23:15.872Z,19.90
2018-09-26T13:25:44.366Z,20.10
2018-09-26T13:28:12.979Z,20.40
2018-09-26T13:30:41.485Z,20.70
2018-09-26T13:33:10.008Z,21.80
2018-09-26T13:38:06.815Z,25.20
2018-09-26T13:40:37.251Z,27.70
2018-09-26T13:43:05.756Z,30.40
2018-09-26T13:45:34.288Z,33.40
2018-09-26T13:48:02.693Z,36.00
2018-09-26T13:50:31.266Z,37.70
2018-09-26T13:53:00.619Z,39.70
2018-09-26T13:55:29.195Z,41.60
2018-09-26T13:57:57.708Z,42.80
2018-09-26T14:00:26.314Z,44.60
2018-09-26T14:02:54.722Z,46.00
2018-09-26T14:05:23.221Z,46.10
2018-09-26T14:07:51.741Z,46.00
2018-09-26T14:10:20.272Z,46.50
2018-09-26T14:12:48.821Z,47.00
2018-09-26T14:15:17.418Z,47.80
2018-09-26T14:17:45.945Z,47.60
2018-09-26T14:20:14.485Z,47.50
2018-09-26T14:22:42.969Z,47.20
2018-09-26T14:25:11.497Z,47.80
2018-09-26T14:27:39.985Z,48.60
2018-09-26T14:30:08.623Z,49.00
2018-09-26T14:32:37.099Z,49.90
2018-09-26T14:35:05.612Z,49.90
2018-09-26T14:37:34.077Z,49.60
2018-09-26T14:40:02.565Z,49.50
2018-09-26T14:42:31.072Z,48.60
2018-09-26T14:44:59.627Z,47.50
2018-09-26T14:47:28.108Z,45.80
2018-09-26T14:49:56.644Z,45.70
2018-09-26T14:52:25.126Z,45.80
2018-09-26T14:54:53.669Z,46.50
2018-09-26T14:57:22.443Z,47.10
2018-09-26T14:59:50.919Z,47.40
2018-09-26T15:02:19.672Z,47.50
2018-09-26T15:04:48.177Z,46.60
2018-09-26T15:07:16.646Z,45.60
2018-09-26T15:09:45.175Z,44.80
2018-09-26T15:12:13.695Z,44.60
2018-09-26T15:14:42.276Z,44.80
2018-09-26T15:17:10.755Z,45.30
2018-09-26T15:19:39.420Z,46.10
2018-09-26T15:22:08.015Z,45.70
2018-09-26T15:24:36.500Z,45.30
2018-09-26T15:27:05.079Z,45.70
2018-09-26T15:29:34.076Z,45.20
2018-09-26T15:32:02.590Z,45.40
2018-09-26T15:34:31.100Z,45.40
2018-09-26T15:36:59.668Z,45.40
2018-09-26T15:39:28.132Z,45.50
2018-09-26T15:41:56.679Z,45.60
2018-09-26T15:44:25.247Z,45.90
2018-09-26T15:46:53.640Z,45.90
2018-09-26T15:49:22.137Z,45.60
2018-09-26T15:51:50.634Z,45.30
2018-09-26T15:54:19.221Z,45.20
2018-09-26T15:56:47.710Z,44.50
2018-09-26T15:59:16.322Z,44.50
2018-09-26T16:01:44.849Z,44.00
2018-09-26T16:04:13.520Z,43.70
2018-09-26T16:06:41.943Z,42.20
2018-09-26T16:09:10.518Z,38.90
2018-09-26T16:11:39.001Z,35.80
2018-09-26T16:14:07.476Z,33.00
2018-09-26T16:16:36.041Z,30.50
2018-09-26T16:19:04.656Z,28.40
2018-09-26T16:21:34.139Z,26.50
2018-09-26T16:24:02.652Z,24.90
2018-09-26T16:26:31.174Z,23.70
2018-09-26T16:28:59.668Z,22.80
2018-09-26T16:31:28.179Z,22.00
2018-09-26T16:33:56.789Z,21.30
2018-09-26T16:36:25.404Z,20.80
2018-09-26T16:38:53.820Z,20.40
2018-09-26T16:41:22.299Z,20.00
2018-09-26T16:43:50.824Z,19.70
2018-09-26T16:46:19.313Z,19.50
2018-09-26T16:48:47.850Z,19.30
2018-09-26T16:51:16.334Z,19.00
2018-09-26T16:53:44.972Z,18.80
2018-09-26T16:56:13.428Z,18.70
2018-09-26T16:58:41.893Z,18.50
2018-09-26T17:01:10.400Z,18.40
2018-09-26T17:03:38.895Z,18.20
2018-09-26T17:06:07.694Z,18.10
2018-09-26T17:08:36.234Z,17.90
2018-09-26T17:11:04.788Z,17.80
2018-09-26T17:13:33.335Z,17.60
2018-09-26T17:16:01.825Z,17.50
2018-09-26T17:18:31.065Z,17.40
2018-09-26T17:20:59.575Z,17.20
2018-09-26T17:23:28.041Z,17.10
2018-09-26T17:25:56.535Z,17.00
2018-09-26T17:28:25.228Z,16.80
2018-09-26T17:30:53.512Z,16.70
2018-09-26T17:33:22.296Z,16.60
2018-09-26T17:35:50.738Z,16.50
2018-09-26T17:38:19.258Z,16.40
2018-09-26T17:40:47.767Z,16.30
2018-09-26T17:43:16.277Z,16.20
2018-09-26T17:45:44.716Z,16.10
2018-09-26T17:48:13.218Z,16.00
2018-09-26T17:50:41.684Z,15.90
2018-09-26T17:53:10.270Z,15.90
2018-09-26T17:55:38.787Z,15.80
2018-09-26T17:58:07.353Z,15.80
2018-09-26T18:00:35.861Z,15.70
2018-09-26T18:03:09.202Z,15.70
2018-09-26T18:05:37.702Z,15.60
2018-09-26T18:08:06.234Z,15.50
2018-09-26T18:10:34.814Z,15.50
2018-09-26T18:13:03.390Z,15.40
2018-09-26T18:15:31.906Z,15.40
2018-09-26T18:18:00.418Z,15.30
2018-09-26T18:20:29.006Z,15.20
2018-09-26T18:22:57.542Z,15.20
2018-09-26T18:25:26.010Z,15.10
2018-09-26T18:27:54.571Z,15.10
2018-09-26T18:30:23.126Z,15.00
2018-09-26T18:32:51.640Z,15.00
2018-09-26T18:35:20.967Z,14.90
2018-09-26T18:37:49.506Z,14.90
2018-09-26T18:40:18.042Z,14.80
2018-09-26T18:42:46.597Z,14.80
2018-09-26T18:45:15.137Z,14.80
2018-09-26T18:47:43.606Z,14.70
2018-09-26T18:50:12.157Z,14.70
2018-09-26T18:52:40.722Z,14.60
2018-09-26T18:55:09.181Z,14.50
2018-09-26T18:57:37.658Z,14.50
2018-09-26T19:00:06.179Z,14.40
2018-09-26T19:02:34.681Z,14.30
2018-09-26T19:05:03.305Z,14.30
2018-09-26T19:07:31.719Z,14.30
2018-09-26T19:10:00.198Z,14.30
2018-09-26T19:12:28.826Z,14.20
2018-09-26T19:14:57.136Z,14.20
2018-09-26T19:17:25.645Z,14.20
2018-09-26T19:19:54.147Z,14.20
2018-09-26T19:22:22.599Z,14.10
2018-09-26T19:24:51.104Z,14.10
2018-09-26T19:27:19.585Z,14.10
2018-09-26T19:29:48.779Z,14.00
2018-09-26T19:32:17.328Z,14.00
2018-09-26T19:34:45.888Z,14.00
2018-09-26T19:37:14.402Z,14.00
2018-09-26T19:39:42.887Z,14.00
2018-09-26T19:42:11.355Z,13.90
2018-09-26T19:44:39.880Z,13.90
2018-09-26T19:47:08.339Z,13.90
2018-09-26T19:49:36.969Z,13.90
2018-09-26T19:52:05.489Z,13.90
2018-09-26T19:54:33.998Z,13.90
2018-09-26T19:57:02.472Z,13.90
2018-09-26T19:59:30.929Z,13.80
2018-09-26T20:01:59.538Z,13.80
2018-09-26T20:04:27.985Z,13.80
2018-09-26T20:06:56.530Z,13.80
2018-09-26T20:09:25.030Z,13.80
2018-09-26T20:11:53.563Z,13.80
2018-09-26T20:14:22.093Z,13.70
2018-09-26T20:16:50.612Z,13.70
2018-09-26T20:19:19.120Z,13.70
2018-09-26T20:21:47.687Z,13.60
2018-09-26T20:24:16.186Z,13.60
2018-09-26T20:26:44.800Z,13.60
2018-09-26T20:29:14.058Z,13.60
2018-09-26T20:31:42.546Z,13.50
2018-09-26T20:34:11.053Z,13.50
2018-09-26T20:36:39.520Z,13.50
2018-09-26T20:39:09.591Z,13.40
2018-09-26T20:41:38.205Z,13.40
2018-09-26T20:44:06.750Z,13.40
2018-09-26T20:46:35.261Z,13.40
2018-09-26T20:49:03.734Z,13.40
2018-09-26T20:51:32.255Z,13.40
2018-09-26T20:54:00.760Z,13.40
2018-09-26T20:56:29.209Z,13.40
2018-09-26T20:58:57.724Z,13.40
2018-09-26T21:01:26.255Z,13.40
2018-09-26T21:03:54.737Z,13.30
2018-09-26T21:06:23.302Z,13.30
2018-09-26T21:08:51.721Z,13.30
2018-09-26T21:11:20.236Z,13.20
2018-09-26T21:13:48.721Z,13.20
2018-09-26T21:16:17.259Z,13.20
2018-09-26T21:18:45.714Z,13.10
2018-09-26T21:21:14.201Z,13.10
2018-09-26T21:23:42.732Z,13.00
2018-09-26T21:26:11.225Z,13.00
2018-09-26T21:28:39.745Z,12.90
2018-09-26T21:31:08.627Z,12.90
2018-09-26T21:33:37.127Z,12.80
2018-09-26T21:36:05.671Z,12.80
2018-09-26T21:38:34.180Z,12.80
2018-09-26T21:41:02.719Z,12.70
2018-09-26T21:43:31.209Z,12.80
2018-09-26T21:45:59.662Z,12.70
2018-09-26T21:48:28.141Z,12.70
2018-09-26T21:50:56.672Z,12.70
2018-09-26T21:53:25.162Z,12.70
2018-09-26T21:55:54.536Z,12.70
2018-09-26T21:58:23.283Z,12.70
2018-09-26T22:00:56.942Z,12.70
2018-09-26T22:03:25.578Z,12.70
2018-09-26T22:05:54.207Z,12.70
2018-09-26T22:08:23.606Z,12.70
2018-09-26T22:10:52.364Z,12.70
2018-09-26T22:13:21.405Z,12.80
2018-09-26T22:15:50.050Z,12.90
2018-09-26T22:18:18.720Z,13.00
2018-09-26T22:20:47.386Z,13.00
2018-09-26T22:23:16.047Z,13.10
2018-09-26T22:25:44.664Z,13.20
2018-09-26T22:28:13.356Z,13.30
2018-09-26T22:30:41.938Z,13.40
2018-09-26T22:33:10.571Z,13.40
2018-09-26T22:35:44.201Z,13.40
2018-09-26T22:38:12.865Z,13.50
2018-09-26T22:40:41.508Z,13.60
2018-09-26T22:43:10.122Z,13.60
2018-09-26T22:45:38.741Z,13.70
2018-09-26T22:48:07.475Z,13.70
2018-09-26T22:50:36.141Z,13.80
2018-09-26T22:53:04.802Z,13.90
2018-09-26T22:55:33.532Z,14.00
2018-09-26T22:58:02.235Z,14.00
2018-09-26T23:00:30.883Z,14.10
2018-09-26T23:02:59.509Z,14.10
2018-09-26T23:05:28.226Z,14.20
2018-09-26T23:07:56.865Z,14.20
2018-09-26T23:10:25.605Z,14.30
2018-09-26T23:12:54.246Z,14.30
2018-09-26T23:15:22.882Z,14.30
2018-09-26T23:17:51.549Z,14.40
2018-09-26T23:20:20.182Z,14.40
2018-09-26T23:22:48.767Z,14.40
2018-09-26T23:25:17.391Z,14.40
2018-09-26T23:27:46.259Z,14.40
2018-09-26T23:30:14.929Z,14.40
2018-09-26T23:32:43.546Z,14.40
2018-09-26T23:35:12.193Z,14.40
2018-09-26T23:37:40.876Z,14.40
2018-09-26T23:40:09.459Z,14.30
2018-09-26T23:42:38.160Z,14.30
2018-09-26T23:45:06.933Z,14.20
2018-09-26T23:47:35.597Z,14.10
2018-09-26T23:50:04.420Z,14.00
2018-09-26T23:52:33.045Z,13.90
2018-09-26T23:55:02.332Z,13.70
2018-09-26T23:57:31.043Z,13.60
2018-09-26T23:59:59.663Z,13.50
